Kotzebue, AK

10:56 PM AKDT on August 27, 2016 (GMT -0800)
Wien Memorial | | Change Station

Elev 16 ft 66.88 °N, 162.60 °W | Updated 3 minutes ago

Overcast
Overcast
54 °F
Feels Like 54 °F
N
14
Wind Variable Wind from NW

Today
High -- | Low -- °F
--% Chance of Precip.
Yesterday
High -- | Low -- °F
Precip. -- in
Pressure 30.29 in
Visibility 10.0 miles
Clouds Scattered Clouds 2200 ft
Overcast 3500 ft
Dew Point 50 °F
Humidity 86%
Rainfall 0.01 in
Snow Depth Not available.
7:07 AM 10:33 PM
Waning Crescent, 18% visible
METAR PAOT 280653Z 32012KT 10SM SCT022 OVC035 12/10 A3029 RMK AO2 SLP257 T01220100
Pressure 30.29 in
Visibility 10.0 miles
Clouds Scattered Clouds 2200 ft
Overcast 3500 ft
Dew Point 50 °F
Humidity 86%
Rainfall 0.01 in
Snow Depth Not available.
7:07 AM 10:33 PM
Waning Crescent, 18% visible
METAR PAOT 280653Z 32012KT 10SM SCT022 OVC035 12/10 A3029 RMK AO2 SLP257 T01220100

10-Day Weather Forecast

Almanac

Astronomy

Aug. 27, 2016 Rise Set
Actual Time
Civil Twilight
Nautical Twilight
Astronomical Twilight
Moon
Length of Visible Light
Length of Day
Tomorrow will be .
, % of the Moon is Illuminated

Today's Extremes

State Highs State Lows

Community

WunderPhotos

Upload Photos

1,935,533 photos uploaded!

WunderBlog® & News

Nearby

Air Quality

  Air Quality AQ Index Pollutant
Not available.

Snow Depth

Station Depth Elevation

Earthquake Activity

City Distance Mag. Time & Date
Minimum magnitude displayed is 2.5.

Coastal Water Temperatures

Place Temperature

Stations

Nearby Weather Stations

Station Location Temp. Windchill Dew Point Humidity Wind Precip. Elev Updated Type
                   

Watches & Warnings

There are currently no watches in effect.